Time;durP1;ratioP1;P1;durP2;ratioP2;P2;SDS_P1;SDS_P2;PMS_P1;PMS_P2;Temp;Humidity;BMP_temperature;BMP_pressure;BME280_temperature;BME280_humidity;BME280_pressure;Samples;Min_cycle;Max_cycle;Signal;HPM_P1;HPM_P2
2024/01/01 00:01:37;;;;;;;175.73;122.15;;;;;;;6.22;66.04;94657.38;4196058;28;20131;-70
2024/01/01 00:03:39;;;;;;;173.52;115.28;;;;;;;6.23;65.76;94659.00;4204763;28;20040;-68
2024/01/01 00:05:41;;;;;;;156.43;110.57;;;;;;;6.25;65.84;94660.50;4201320;28;20056;-70
2024/01/01 00:07:43;;;;;;;158.90;109.32;;;;;;;6.27;65.68;94657.78;4207276;28;20152;-70
2024/01/01 00:09:45;;;;;;;149.35;105.82;;;;;;;6.30;65.78;94657.50;4201646;28;20094;-71
2024/01/01 00:11:47;;;;;;;150.40;103.13;;;;;;;6.34;65.42;94645.88;4203006;28;20758;-69
2024/01/01 00:13:48;;;;;;;149.93;103.00;;;;;;;6.36;65.82;94651.75;4196684;28;20144;-71
2024/01/01 00:15:50;;;;;;;153.60;103.75;;;;;;;6.36;65.42;94652.56;4200481;28;20152;-72
2024/01/01 00:17:52;;;;;;;154.77;106.43;;;;;;;6.37;65.65;94650.81;4207379;28;20044;-70
2024/01/01 00:19:54;;;;;;;149.95;100.13;;;;;;;6.41;65.69;94651.34;4200532;28;20647;-72
2024/01/01 00:21:56;;;;;;;143.35;99.38;;;;;;;6.48;65.51;94666.31;4195651;28;20353;-71
2024/01/01 00:23:58;;;;;;;156.45;106.05;;;;;;;6.50;64.98;94664.38;4202836;28;20095;-72
2024/01/01 00:26:00;;;;;;;157.80;109.57;;;;;;;6.41;65.08;94664.34;4201582;28;20582;-72
2024/01/01 00:28:04;;;;;;;155.13;105.63;;;;;;;5.95;66.37;94669.19;4194285;28;20052;-73
2024/01/01 00:30:10;;;;;;;153.40;106.35;;;;;;;5.96;66.78;94665.63;4192018;28;20052;-71
2024/01/01 00:32:12;;;;;;;150.48;101.80;;;;;;;5.90;66.31;94668.72;4199033;28;20056;-70
2024/01/01 00:34:14;;;;;;;147.57;100.80;;;;;;;5.87;67.41;94666.38;4200213;28;20048;-73
2024/01/01 00:36:15;;;;;;;128.88;91.47;;;;;;;5.99;67.52;94667.97;4194933;28;20056;-71
2024/01/01 00:38:19;;;;;;;145.40;98.75;;;;;;;6.06;66.70;94670.84;4206687;28;20044;-70
2024/01/01 00:40:21;;;;;;;133.27;91.55;;;;;;;6.03;66.48;94666.75;4204684;28;20740;-71
2024/01/01 00:42:23;;;;;;;136.55;91.15;;;;;;;6.07;66.64;94673.34;4195099;28;20049;-74
2024/01/01 00:44:26;;;;;;;139.52;98.00;;;;;;;6.15;66.43;94665.69;4197131;28;20044;-71
2024/01/01 00:46:28;;;;;;;133.23;95.13;;;;;;;6.21;65.91;94673.91;4200227;28;20359;-72
2024/01/01 00:48:30;;;;;;;143.38;95.60;;;;;;;6.22;66.13;94665.16;4205059;28;20044;-71
2024/01/01 00:50:31;;;;;;;131.07;90.07;;;;;;;6.30;65.69;94666.16;4205720;28;20458;-72
2024/01/01 00:52:33;;;;;;;138.32;96.25;;;;;;;6.34;66.09;94661.47;4201148;28;20080;-70
2024/01/01 00:54:35;;;;;;;151.40;101.13;;;;;;;6.20;65.81;94654.88;4203933;28;20367;-72
2024/01/01 00:56:37;;;;;;;144.63;96.45;;;;;;;6.03;67.11;94660.72;4198752;28;20139;-70
2024/01/01 00:58:39;;;;;;;161.95;108.75;;;;;;;6.08;66.93;94663.75;4199273;28;20363;-69
2024/01/01 01:00:41;;;;;;;145.18;100.55;;;;;;;6.17;66.57;94660.34;4201849;28;20049;-71
2024/01/01 01:02:43;;;;;;;141.90;96.25;;;;;;;6.20;66.32;94654.06;4203723;28;20086;-72
2024/01/01 01:04:46;;;;;;;138.95;96.07;;;;;;;6.26;65.96;94643.09;4208692;28;20093;-73
2024/01/01 01:07:06;;;;;;;132.95;94.20;;;;;;;6.24;65.63;94652.81;4195924;28;20131;-70
2024/01/01 01:09:08;;;;;;;138.25;93.63;;;;;;;6.15;65.96;94649.25;4205089;28;20458;-69
2024/01/01 01:11:09;;;;;;;136.77;94.35;;;;;;;6.15;66.23;94649.25;4197940;28;20127;-71
2024/01/01 01:13:11;;;;;;;149.52;100.07;;;;;;;6.20;66.15;94651.47;4204451;28;20052;-71
2024/01/01 01:15:13;;;;;;;138.63;93.80;;;;;;;6.24;65.95;94640.66;4209731;28;20047;-72
2024/01/01 01:17:15;;;;;;;138.70;95.60;;;;;;;6.24;65.86;94637.22;4194373;28;20110;-71
2024/01/01 01:19:17;;;;;;;131.65;93.68;;;;;;;6.19;65.81;94634.19;4195898;28;20048;-70
2024/01/01 01:21:19;;;;;;;128.43;87.78;;;;;;;6.21;66.06;94629.69;4199205;28;20091;-71
2024/01/01 01:23:21;;;;;;;133.63;89.13;;;;;;;6.21;65.99;94625.31;4204369;28;20131;-72
2024/01/01 01:25:22;;;;;;;135.02;91.38;;;;;;;6.00;65.93;94625.41;4200533;28;20096;-71
2024/01/01 01:27:24;;;;;;;138.60;92.88;;;;;;;5.96;67.38;94634.44;4206647;28;20051;-72
2024/01/01 01:29:26;;;;;;;132.63;91.38;;;;;;;5.98;67.48;94627.31;4204586;28;20044;-72
2024/01/01 01:31:28;;;;;;;128.70;89.30;;;;;;;6.02;66.71;94630.47;4203358;28;20494;-71
2024/01/01 01:33:30;;;;;;;132.15;90.80;;;;;;;6.00;66.69;94627.16;4204348;28;20044;-71
2024/01/01 01:35:31;;;;;;;126.35;89.72;;;;;;;6.03;66.89;94632.94;4194499;28;20141;-72
2024/01/01 01:37:33;;;;;;;127.90;89.25;;;;;;;6.14;66.79;94632.00;4201538;28;20064;-73
2024/01/01 01:39:35;;;;;;;134.18;87.65;;;;;;;6.17;66.34;94629.13;4208061;28;20344;-72
2024/01/01 01:41:38;;;;;;;128.15;87.85;;;;;;;6.23;66.29;94622.56;4208742;28;20127;-73
2024/01/01 01:43:40;;;;;;;122.00;83.90;;;;;;;6.26;65.81;94619.69;4205405;28;20599;-73
2024/01/01 01:45:41;;;;;;;127.18;87.28;;;;;;;6.27;66.08;94619.56;4200814;28;20131;-71
2024/01/01 01:47:44;;;;;;;128.98;88.82;;;;;;;6.27;66.34;94619.56;4203650;28;20044;-71
2024/01/01 01:49:46;;;;;;;123.70;87.70;;;;;;;6.31;65.70;94617.53;4209666;28;20040;-70
2024/01/01 01:51:49;;;;;;;122.15;81.88;;;;;;;6.29;65.58;94616.84;4200188;28;20113;-69
2024/01/01 01:53:52;;;;;;;118.77;79.37;;;;;;;6.26;65.60;94615.34;4206480;28;20072;-72
2024/01/01 01:55:57;;;;;;;123.72;82.97;;;;;;;6.25;65.44;94625.88;4204585;28;20040;-72
2024/01/01 01:57:59;;;;;;;118.35;78.70;;;;;;;6.25;66.10;94623.25;4199129;28;20131;-70
2024/01/01 02:00:01;;;;;;;111.13;76.68;;;;;;;6.20;65.73;94625.47;4195822;28;20127;-70
2024/01/01 02:02:03;;;;;;;113.05;76.22;;;;;;;6.24;66.30;94627.66;4198499;28;20056;-71
2024/01/01 02:04:05;;;;;;;117.47;78.60;;;;;;;6.27;65.52;94626.56;4195774;28;20055;-70
2024/01/01 02:06:06;;;;;;;115.50;79.70;;;;;;;6.24;65.78;94629.41;4201704;28;20478;-69
2024/01/01 02:08:08;;;;;;;119.20;81.38;;;;;;;6.30;65.87;94631.47;4199576;28;20060;-70
2024/01/01 02:10:12;;;;;;;113.28;79.00;;;;;;;6.31;65.37;94626.16;4198058;28;20058;-68
2024/01/01 02:12:13;;;;;;;116.20;75.65;;;;;;;6.32;65.30;94626.97;4201114;28;20083;-72
2024/01/01 02:14:16;;;;;;;123.82;78.68;;;;;;;6.09;65.57;94640.22;4210091;28;20051;-73
2024/01/01 02:16:20;;;;;;;107.97;71.97;;;;;;;5.00;68.01;94641.59;4205338;28;20058;-71
2024/01/01 02:18:23;;;;;;;;;;;;;;;4.53;71.01;94637.69;4197609;28;20064;-70
2024/01/01 02:20:25;;;;;;;107.05;69.25;;;;;;;4.54;71.79;94640.16;4197421;28;19920;-69
2024/01/01 02:22:36;;;;;;;103.15;71.07;;;;;;;4.76;71.57;94635.81;4204836;28;20059;-71
2024/01/01 02:24:37;;;;;;;109.30;71.55;;;;;;;4.98;71.06;94640.88;4206456;28;20051;-70
2024/01/01 02:26:39;;;;;;;96.95;66.10;;;;;;;5.21;69.89;94639.00;4203519;28;20060;-70
2024/01/01 02:28:41;;;;;;;101.32;66.70;;;;;;;5.39;69.61;94643.59;4202477;28;20051;-70
2024/01/01 02:30:43;;;;;;;108.22;72.05;;;;;;;5.50;68.56;94644.31;4209008;28;20044;-68
2024/01/01 02:32:45;;;;;;;108.63;72.78;;;;;;;5.62;68.37;94639.06;4208774;28;20090;-69
2024/01/01 02:34:50;;;;;;;102.43;68.13;;;;;;;5.76;68.20;94633.50;4196979;28;20044;-72
2024/01/01 02:36:53;;;;;;;95.03;66.78;;;;;;;5.82;67.47;94637.34;4201238;28;20075;-70
2024/01/01 02:38:55;;;;;;;89.47;63.90;;;;;;;5.88;67.47;94642.03;4197902;28;20112;-70
2024/01/01 02:40:57;;;;;;;93.80;64.15;;;;;;;5.97;67.42;94643.88;4204093;28;20044;-70
2024/01/01 02:43:03;;;;;;;84.75;59.38;;;;;;;6.02;67.01;94633.88;4206727;28;20055;-69
2024/01/01 02:45:06;;;;;;;86.07;59.47;;;;;;;6.07;66.59;94634.31;4209007;28;20490;-70
2024/01/01 02:47:08;;;;;;;85.40;60.42;;;;;;;6.08;66.47;94632.53;4204088;28;20535;-69
2024/01/01 02:49:10;;;;;;;83.25;59.53;;;;;;;6.09;66.64;94626.41;4200935;28;20242;-72
2024/01/01 02:51:12;;;;;;;94.63;63.88;;;;;;;6.06;66.43;94632.66;4202353;28;20081;-71
2024/01/01 02:53:14;;;;;;;98.85;69.20;;;;;;;6.02;66.57;94627.84;4203857;28;20097;-71
2024/01/01 02:55:16;;;;;;;99.10;67.55;;;;;;;6.04;66.35;94629.38;4200214;28;20437;-71
2024/01/01 02:57:18;;;;;;;106.20;69.28;;;;;;;6.04;66.72;94621.56;4201074;28;20098;-70
2024/01/01 02:59:19;;;;;;;101.55;66.10;;;;;;;6.05;66.30;94622.41;4204480;28;20060;-72
2024/01/01 03:01:21;;;;;;;101.00;67.55;;;;;;;6.05;66.62;94610.22;4205167;28;20483;-70
2024/01/01 03:03:23;;;;;;;100.95;67.15;;;;;;;6.02;66.74;94604.47;4191864;28;20533;-69
2024/01/01 03:05:27;;;;;;;99.53;67.57;;;;;;;5.98;66.69;94610.88;4192739;28;20058;-69
2024/01/01 03:07:29;;;;;;;98.50;68.22;;;;;;;5.91;66.78;94602.75;4196488;28;20048;-67
2024/01/01 03:09:31;;;;;;;98.75;66.90;;;;;;;5.89;66.94;94602.91;4198685;28;20078;-71
2024/01/01 03:11:35;;;;;;;93.68;61.13;;;;;;;5.85;66.75;94603.28;4194176;28;20568;-69
2024/01/01 03:13:37;;;;;;;94.68;62.85;;;;;;;5.80;66.58;94600.28;4199958;28;20089;-70
2024/01/01 03:15:39;;;;;;;98.78;65.25;;;;;;;5.76;66.96;94602.31;4195603;28;20052;-71
2024/01/01 03:17:41;;;;;;;97.47;63.22;;;;;;;5.74;67.04;94605.06;4202684;28;20156;-69
2024/01/01 03:19:43;;;;;;;96.35;61.70;;;;;;;5.77;67.08;94597.94;4205954;28;20047;-70
2024/01/01 03:21:45;;;;;;;90.72;59.90;;;;;;;5.71;67.44;94584.50;4202776;28;20185;-72
2024/01/01 03:23:46;;;;;;;88.00;57.25;;;;;;;5.74;67.18;94588.63;4201610;28;20044;-70
2024/01/01 03:25:48;;;;;;;91.13;59.88;;;;;;;5.75;67.23;94588.50;4204890;28;20050;-70
2024/01/01 03:27:50;;;;;;;85.82;57.83;;;;;;;5.75;66.87;94579.88;4192364;28;20142;-69
2024/01/01 03:29:52;;;;;;;85.95;58.67;;;;;;;5.73;66.93;94577.41;4193821;28;20040;-70
2024/01/01 03:31:54;;;;;;;90.43;59.03;;;;;;;5.64;66.76;94573.00;4192407;28;20131;-71
2024/01/01 03:33:56;;;;;;;82.57;56.92;;;;;;;5.50;67.32;94579.38;4192540;28;20499;-70
2024/01/01 03:35:59;;;;;;;82.05;56.42;;;;;;;5.51;67.94;94569.81;4193672;28;20048;-70
2024/01/01 03:38:02;;;;;;;81.25;56.00;;;;;;;5.59;67.33;94576.94;4206195;28;20053;-70
2024/01/01 03:40:06;;;;;;;84.10;56.50;;;;;;;5.64;66.98;94573.00;4206125;28;20131;-70
2024/01/01 03:42:09;;;;;;;84.30;57.35;;;;;;;5.72;67.36;94565.38;4202988;28;20055;-70
2024/01/01 03:44:12;;;;;;;76.32;53.38;;;;;;;5.70;67.19;94569.88;4201502;28;20049;-70
2024/01/01 03:46:14;;;;;;;78.50;55.90;;;;;;;5.70;67.79;94564.69;4200196;28;20052;-69
2024/01/01 03:48:15;;;;;;;80.10;56.30;;;;;;;5.72;66.95;94562.78;4208128;28;20055;-69
2024/01/01 03:50:19;;;;;;;87.05;57.33;;;;;;;5.68;67.16;94564.00;4207142;28;20131;-72
2024/01/01 03:52:23;;;;;;;84.43;57.25;;;;;;;5.65;67.19;94563.44;4203976;28;20214;-71
2024/01/01 03:54:25;;;;;;;86.03;54.67;;;;;;;5.67;67.34;94566.72;4192530;28;20273;-70
2024/01/01 03:56:27;;;;;;;84.50;57.13;;;;;;;5.60;66.95;94563.81;4198665;28;20051;-70
2024/01/01 03:58:28;;;;;;;87.28;54.95;;;;;;;5.59;67.44;94563.94;4203954;28;20131;-70
2024/01/01 04:00:30;;;;;;;82.35;55.92;;;;;;;5.56;67.66;94559.84;4201812;28;20131;-71
2024/01/01 04:02:32;;;;;;;86.78;55.13;;;;;;;5.61;67.00;94557.66;4195881;28;20056;-71
2024/01/01 04:04:34;;;;;;;80.43;54.50;;;;;;;5.67;66.96;94561.53;4197382;28;20070;-70
2024/01/01 04:06:36;;;;;;;81.20;56.05;;;;;;;5.71;66.49;94561.13;4198520;28;20044;-69
2024/01/01 04:08:37;;;;;;;81.85;55.83;;;;;;;5.74;66.84;94552.22;4196665;28;20075;-69
2024/01/01 04:10:39;;;;;;;84.82;56.10;;;;;;;5.72;66.43;94557.56;4190990;28;20228;-69
2024/01/01 04:12:41;;;;;;;93.38;58.70;;;;;;;5.59;66.40;94569.97;4200161;28;20044;-71
2024/01/01 04:14:43;;;;;;;88.90;57.45;;;;;;;5.46;67.40;94564.19;4200901;28;20606;-70
2024/01/01 04:16:45;;;;;;;87.10;58.15;;;;;;;5.43;67.95;94567.06;4206317;28;20050;-72
2024/01/01 04:18:47;;;;;;;85.72;55.38;;;;;;;5.44;67.91;94563.47;4200921;28;20522;-70
2024/01/01 04:20:49;;;;;;;85.22;55.88;;;;;;;5.44;67.83;94561.72;4202301;28;20040;-71
2024/01/01 04:22:52;;;;;;;83.35;56.53;;;;;;;5.14;67.97;94567.72;4204446;28;20203;-69
2024/01/01 04:24:54;;;;;;;84.50;56.63;;;;;;;5.15;69.32;94571.97;4197379;28;20048;-71
2024/01/01 04:26:56;;;;;;;86.05;57.33;;;;;;;5.01;68.95;94580.94;4201648;28;20106;-67
2024/01/01 04:28:58;;;;;;;80.78;56.33;;;;;;;4.74;69.25;94589.22;4210667;28;20048;-69
2024/01/01 04:31:00;;;;;;;67.93;49.70;;;;;;;4.23;71.21;94585.53;4195921;28;20507;-71
2024/01/01 04:33:03;;;;;;;73.68;52.75;;;;;;;4.12;72.59;94582.19;4200527;28;20044;-70
2024/01/01 04:35:05;;;;;;;75.95;54.10;;;;;;;4.23;72.30;94576.94;4201515;28;20458;-70
2024/01/01 04:37:07;;;;;;;72.65;51.17;;;;;;;4.44;72.06;94577.81;4198876;28;20394;-70
2024/01/01 04:39:09;;;;;;;74.75;50.03;;;;;;;4.67;71.46;94578.53;4195423;28;20094;-72
2024/01/01 04:41:10;;;;;;;76.30;52.85;;;;;;;4.87;70.46;94579.47;4205439;28;20049;-70
2024/01/01 04:43:13;;;;;;;74.72;51.70;;;;;;;5.05;69.43;94571.09;4205364;28;20159;-68
2024/01/01 04:45:14;;;;;;;83.82;56.42;;;;;;;5.14;68.49;94570.31;4207902;28;20067;-70
2024/01/01 04:47:16;;;;;;;82.85;59.13;;;;;;;5.22;68.89;94572.28;4197007;28;20078;-70
2024/01/01 04:49:18;;;;;;;85.57;57.85;;;;;;;5.26;68.48;94569.28;4208879;28;20093;-72
2024/01/01 04:51:20;;;;;;;84.13;57.33;;;;;;;5.26;68.45;94571.88;4209366;28;20553;-70
2024/01/01 04:53:24;;;;;;;79.80;52.33;;;;;;;5.35;68.56;94570.28;4207271;28;20131;-71
2024/01/01 04:55:26;;;;;;;81.93;53.53;;;;;;;5.42;68.39;94563.63;4204397;28;20052;-72
2024/01/01 04:57:28;;;;;;;94.35;62.70;;;;;;;5.40;67.81;94554.31;4197101;28;20045;-72
2024/01/01 04:59:30;;;;;;;101.45;67.72;;;;;;;5.40;67.55;94556.91;4200034;28;20052;-72
2024/01/01 05:01:32;;;;;;;93.78;65.22;;;;;;;5.34;68.18;94558.25;4204091;28;20463;-70
2024/01/01 05:03:34;;;;;;;86.90;58.47;;;;;;;5.33;67.79;94560.03;4203071;28;20052;-70
2024/01/01 05:05:36;;;;;;;79.75;57.33;;;;;;;5.34;67.52;94561.69;4210149;28;20739;-69
2024/01/01 05:07:37;;;;;;;83.28;55.67;;;;;;;5.37;67.99;94559.78;4198642;28;20056;-71
2024/01/01 05:09:42;;;;;;;90.22;59.50;;;;;;;5.44;67.65;94568.69;4199056;28;20048;-71
2024/01/01 05:11:44;;;;;;;84.25;58.30;;;;;;;5.49;67.11;94572.53;4207893;28;20117;-72
2024/01/01 05:13:46;;;;;;;83.45;59.00;;;;;;;5.54;67.74;94565.16;4196224;28;20049;-71
2024/01/01 05:15:48;;;;;;;78.60;55.03;;;;;;;5.54;66.53;94572.13;4204599;28;20048;-69
2024/01/01 05:17:51;;;;;;;68.95;49.15;;;;;;;5.48;67.22;94572.66;4199913;28;20388;-72
2024/01/01 05:19:54;;;;;;;68.32;48.40;;;;;;;5.41;67.54;94566.34;4198033;28;20056;-74
2024/01/01 05:21:55;;;;;;;70.07;49.67;;;;;;;5.40;67.15;94564.69;4205553;28;20048;-72
2024/01/01 05:23:57;;;;;;;62.33;45.95;;;;;;;5.16;67.84;94555.44;4199976;28;20090;-74
2024/01/01 05:25:59;;;;;;;62.88;43.40;;;;;;;5.09;68.29;94556.91;4194414;28;20642;-71
2024/01/01 05:28:01;;;;;;;62.75;42.88;;;;;;;4.86;68.96;94554.47;4194477;28;20090;-70
2024/01/01 05:30:04;;;;;;;62.95;45.55;;;;;;;4.62;69.60;94551.31;4201216;28;20207;-71
2024/01/01 05:32:06;;;;;;;57.40;42.50;;;;;;;4.62;70.37;94559.09;4198064;28;20463;-71
2024/01/01 05:34:08;;;;;;;56.17;41.40;;;;;;;4.32;70.79;94547.69;4202847;28;20062;-71
2024/01/01 05:36:13;;;;;;;60.50;43.05;;;;;;;4.15;71.63;94550.81;4206987;28;20084;-71
2024/01/01 05:38:17;;;;;;;65.80;46.60;;;;;;;4.17;72.24;94547.16;4199827;28;20048;-71
2024/01/01 05:40:19;;;;;;;63.97;46.25;;;;;;;4.35;72.54;94538.84;4203167;28;20056;-70
2024/01/01 05:42:21;;;;;;;76.47;51.35;;;;;;;4.50;71.38;94538.41;4197445;28;20151;-73
2024/01/01 05:44:23;;;;;;;77.20;51.70;;;;;;;4.66;71.11;94544.91;4206987;28;20048;-71
2024/01/01 05:46:25;;;;;;;73.85;50.83;;;;;;;4.82;70.25;94542.72;4203636;28;20125;-71
2024/01/01 05:48:27;;;;;;;77.15;55.13;;;;;;;4.90;69.42;94537.72;4201928;28;20056;-71
2024/01/01 05:50:40;;;;;;;107.05;73.82;;;;;;;4.89;68.89;94546.44;4198639;28;20044;-72
2024/01/01 05:52:42;;;;;;;97.30;69.35;;;;;;;4.88;69.22;94541.34;4208818;28;20044;-72
2024/01/01 05:54:45;;;;;;;102.68;68.22;;;;;;;4.88;69.21;94541.34;4198789;28;20053;-70
2024/01/01 05:56:47;;;;;;;110.60;76.50;;;;;;;4.83;68.96;94543.53;4193510;28;20052;-71
2024/01/01 05:58:49;;;;;;;120.60;84.22;;;;;;;4.53;69.21;94545.09;4209320;28;20051;-72
2024/01/01 06:00:51;;;;;;;115.45;79.50;;;;;;;4.49;70.04;94543.72;4196159;28;20045;-71
2024/01/01 06:02:52;;;;;;;117.50;77.60;;;;;;;4.54;70.48;94540.72;4200310;28;20106;-71
2024/01/01 06:04:54;;;;;;;109.63;75.43;;;;;;;4.67;70.10;94549.19;4202682;28;20052;-68
2024/01/01 06:06:56;;;;;;;107.07;72.18;;;;;;;4.79;69.35;94549.91;4198260;28;20056;-68
2024/01/01 06:08:58;;;;;;;133.15;86.90;;;;;;;4.72;69.05;94552.19;4199339;28;20056;-69
2024/01/01 06:11:00;;;;;;;126.45;87.60;;;;;;;4.62;69.27;94546.13;4199941;28;20052;-70
2024/01/01 06:13:03;;;;;;;127.95;86.10;;;;;;;4.70;69.73;94535.94;4203629;28;20055;-71
2024/01/01 06:15:05;;;;;;;125.07;83.53;;;;;;;4.78;68.81;94541.31;4202543;28;20059;-71
2024/01/01 06:17:07;;;;;;;146.10;94.53;;;;;;;4.78;68.74;94536.13;4196648;28;20048;-69
2024/01/01 06:19:10;;;;;;;137.95;95.65;;;;;;;4.88;68.60;94537.00;4202888;28;20086;-70
2024/01/01 06:21:11;;;;;;;157.00;106.57;;;;;;;5.02;67.99;94537.63;4199275;28;20090;-71
2024/01/01 06:23:13;;;;;;;153.60;106.85;;;;;;;5.12;68.19;94554.06;4198235;28;20471;-70
2024/01/01 06:25:17;;;;;;;165.13;109.30;;;;;;;5.20;67.70;94546.44;4201540;28;20106;-71
2024/01/01 06:27:19;;;;;;;159.52;106.95;;;;;;;5.27;67.90;94542.38;4197926;28;20056;-69
2024/01/01 06:29:23;;;;;;;143.02;98.45;;;;;;;5.33;67.57;94541.03;4207162;28;20052;-71
2024/01/01 06:31:25;;;;;;;155.20;105.38;;;;;;;5.36;67.19;94542.56;4208847;28;20075;-70
2024/01/01 06:33:29;;;;;;;170.65;111.88;;;;;;;5.39;67.18;94543.09;4188178;28;20052;-71
2024/01/01 06:35:31;;;;;;;158.23;110.43;;;;;;;5.50;66.18;94540.41;4194357;28;20102;-71
2024/01/01 06:37:33;;;;;;;178.63;116.15;;;;;;;5.71;66.26;94529.94;4193892;28;20072;-71
2024/01/01 06:39:35;;;;;;;164.73;113.63;;;;;;;6.05;65.02;94531.41;4193640;28;20052;-72
2024/01/01 06:41:37;;;;;;;156.60;106.03;;;;;;;6.50;64.04;94528.25;4205154;28;20047;-71
2024/01/01 06:43:39;;;;;;;161.55;105.25;;;;;;;6.69;62.40;94520.41;4200929;28;20058;-70
2024/01/01 06:45:40;;;;;;;151.70;102.57;;;;;;;6.87;62.59;94512.69;4206278;28;20044;-71
2024/01/01 06:47:42;;;;;;;154.50;103.00;;;;;;;6.89;62.07;94502.16;4208470;28;20097;-68
2024/01/01 06:49:44;;;;;;;156.82;104.43;;;;;;;6.85;62.04;94508.59;4206751;28;20613;-72
2024/01/01 06:51:52;;;;;;;159.73;109.78;;;;;;;6.77;62.23;94509.28;4196098;28;20052;-71
2024/01/01 06:53:54;;;;;;;158.75;109.75;;;;;;;6.69;62.15;94511.75;4209229;28;20526;-71
2024/01/01 06:55:56;;;;;;;157.50;106.32;;;;;;;6.35;62.40;94522.63;4207604;28;20047;-70
2024/01/01 06:58:00;;;;;;;154.05;103.88;;;;;;;6.20;63.44;94524.81;4205475;28;20078;-72
2024/01/01 07:00:03;;;;;;;164.52;104.55;;;;;;;6.19;64.03;94527.56;4197985;28;20511;-70
2024/01/01 07:02:07;;;;;;;167.10;112.45;;;;;;;5.82;64.02;94529.00;4205364;28;20067;-69
2024/01/01 07:04:09;;;;;;;;;;;;;;;5.45;65.18;94531.38;4198361;28;20052;-70
2024/01/01 07:06:11;;;;;;;162.52;109.30;;;;;;;5.47;65.57;94526.88;4197253;28;19920;-71
2024/01/01 07:08:13;;;;;;;155.30;104.05;;;;;;;5.45;66.29;94532.19;4200648;28;20060;-69
2024/01/01 07:10:15;;;;;;;156.57;107.97;;;;;;;5.53;66.13;94529.75;4196313;28;20059;-70
2024/01/01 07:12:23;;;;;;;145.63;97.47;;;;;;;5.66;66.07;94526.91;4207145;28;20071;-71
2024/01/01 07:14:25;;;;;;;145.02;96.95;;;;;;;5.71;65.03;94529.94;4204938;28;20483;-70
2024/01/01 07:16:27;;;;;;;137.43;96.05;;;;;;;5.78;65.47;94526.78;4204773;28;20117;-69
2024/01/01 07:18:29;;;;;;;133.88;92.93;;;;;;;5.85;64.96;94526.13;4205909;28;20052;-68
2024/01/01 07:20:31;;;;;;;150.68;102.80;;;;;;;5.82;64.64;94534.19;4192801;28;20072;-71
2024/01/01 07:22:33;;;;;;;146.13;102.30;;;;;;;5.89;65.17;94513.66;4194464;28;20120;-68
2024/01/01 07:24:35;;;;;;;142.80;99.85;;;;;;;5.99;64.62;94519.75;4202558;28;20521;-72
2024/01/01 07:26:37;;;;;;;154.63;101.97;;;;;;;6.06;64.39;94513.03;4192394;28;20403;-69
2024/01/01 07:28:39;;;;;;;150.63;101.40;;;;;;;6.13;64.52;94516.75;4203083;28;20136;-71
2024/01/01 07:30:41;;;;;;;142.55;97.85;;;;;;;5.66;64.44;94529.50;4200704;28;20054;-69
2024/01/01 07:32:43;;;;;;;154.00;101.85;;;;;;;5.54;65.29;94533.16;4205242;28;20565;-71
2024/01/01 07:34:45;;;;;;;152.70;102.40;;;;;;;5.64;65.77;94528.00;4201595;28;20052;-71
2024/01/01 07:36:48;;;;;;;148.27;105.70;;;;;;;5.67;65.71;94527.72;4202144;28;20462;-70
2024/01/01 07:38:50;;;;;;;149.75;105.57;;;;;;;5.83;65.51;94530.66;4196856;28;20044;-70
2024/01/01 07:40:52;;;;;;;150.00;102.65;;;;;;;6.11;65.14;94534.28;4206780;28;20521;-71
2024/01/01 07:42:55;;;;;;;132.85;94.80;;;;;;;6.31;64.37;94519.47;4194306;28;20505;-70
2024/01/01 07:44:57;;;;;;;137.20;93.15;;;;;;;6.52;63.82;94526.31;4199832;28;20077;-72
2024/01/01 07:46:59;;;;;;;119.53;81.55;;;;;;;6.69;63.30;94516.97;4203613;28;20057;-71
2024/01/01 07:49:03;;;;;;;130.27;85.25;;;;;;;6.83;63.46;94521.75;4206818;28;20123;-72
2024/01/01 07:51:05;;;;;;;106.63;75.28;;;;;;;6.89;62.91;94531.59;4199519;28;20114;-70
2024/01/01 07:53:07;;;;;;;106.25;70.88;;;;;;;6.93;63.00;94535.56;4202120;28;20079;-72
2024/01/01 07:55:11;;;;;;;95.03;68.95;;;;;;;7.00;62.93;94545.44;4206278;28;20060;-71
2024/01/01 07:57:12;;;;;;;85.65;60.20;;;;;;;7.11;62.78;94545.25;4196764;28;20379;-71
2024/01/01 07:59:14;;;;;;;87.30;56.25;;;;;;;7.14;62.45;94550.16;4198564;28;20056;-71
2024/01/01 08:01:16;;;;;;;73.35;54.13;;;;;;;7.18;62.35;94543.72;4196491;28;20106;-71
2024/01/01 08:03:20;;;;;;;81.10;55.88;;;;;;;7.12;61.83;94545.13;4205460;28;20053;-70
2024/01/01 08:05:23;;;;;;;72.90;52.00;;;;;;;6.96;62.49;94556.13;4203044;28;20080;-69
2024/01/01 08:07:25;;;;;;;78.53;55.58;;;;;;;6.64;62.97;94550.41;4207975;28;20108;-71
2024/01/01 08:09:26;;;;;;;84.07;58.30;;;;;;;6.68;64.03;94542.19;4200935;28;20401;-71
2024/01/01 08:11:28;;;;;;;88.13;60.95;;;;;;;6.71;64.41;94548.88;4207974;28;20343;-72
2024/01/01 08:13:30;;;;;;;92.65;64.53;;;;;;;6.81;63.71;94544.50;4210987;28;20052;-71
2024/01/01 08:15:32;;;;;;;100.13;69.68;;;;;;;6.81;63.60;94549.69;4211145;28;20123;-71
2024/01/01 08:17:34;;;;;;;91.03;66.70;;;;;;;6.75;63.32;94542.44;4210403;28;20063;-71
2024/01/01 08:19:36;;;;;;;93.13;66.43;;;;;;;6.68;63.88;94547.38;4198599;28;20538;-70
2024/01/01 08:21:38;;;;;;;100.40;70.38;;;;;;;6.76;64.07;94544.09;4208897;28;20523;-70
2024/01/01 08:23:40;;;;;;;110.50;77.68;;;;;;;6.89;63.46;94549.00;4209407;28;20473;-73
2024/01/01 08:25:42;;;;;;;125.25;87.70;;;;;;;6.74;62.20;94535.59;4209463;28;20056;-72
2024/01/01 08:27:44;;;;;;;126.38;83.88;;;;;;;6.73;62.39;94529.59;4207072;28;20474;-69
2024/01/01 08:29:46;;;;;;;123.32;83.00;;;;;;;6.83;63.07;94545.19;4210627;28;20101;-69
2024/01/01 08:31:48;;;;;;;110.45;76.35;;;;;;;6.68;62.96;94539.59;4210648;28;20105;-71
2024/01/01 08:33:50;;;;;;;110.63;76.20;;;;;;;6.61;63.29;94545.50;4204208;28;20185;-71
2024/01/01 08:35:55;;;;;;;117.55;81.53;;;;;;;6.56;64.15;94546.72;4194518;28;20106;-72
2024/01/01 08:37:57;;;;;;;123.10;85.75;;;;;;;6.61;63.51;94555.91;4194425;28;20063;-70
2024/01/01 08:40:00;;;;;;;124.88;90.07;;;;;;;6.44;62.96;94545.22;4203372;28;20402;-72
2024/01/01 08:42:02;;;;;;;126.20;85.82;;;;;;;6.37;63.82;94554.53;4209823;28;20107;-72
2024/01/01 08:44:07;;;;;;;129.70;90.28;;;;;;;6.53;66.00;94559.19;4210447;28;20545;-71
2024/01/01 08:46:08;;;;;;;128.52;88.35;;;;;;;6.33;64.23;94559.19;4206304;28;20209;-70
2024/01/01 08:48:10;;;;;;;121.10;84.32;;;;;;;6.06;64.27;94567.66;4207142;28;20191;-72
2024/01/01 08:50:13;;;;;;;124.18;86.80;;;;;;;5.98;65.12;94562.31;4208845;28;20136;-74
2024/01/01 08:52:15;;;;;;;123.32;85.40;;;;;;;6.18;65.27;94560.56;4195426;28;20048;-72
2024/01/01 08:54:18;;;;;;;117.25;80.43;;;;;;;6.34;64.40;94552.19;4208495;28;20093;-72
2024/01/01 08:56:20;;;;;;;113.50;82.78;;;;;;;6.49;63.77;94550.81;4198831;28;20606;-70
2024/01/01 08:58:22;;;;;;;116.90;82.70;;;;;;;6.40;63.55;94551.66;4202974;28;20086;-70
2024/01/01 09:00:24;;;;;;;127.50;87.70;;;;;;;6.43;63.98;94553.16;4197538;28;20134;-72
2024/01/01 09:02:26;;;;;;;118.40;83.32;;;;;;;6.52;63.72;94553.16;4203788;28;20104;-71
2024/01/01 09:04:27;;;;;;;123.43;86.25;;;;;;;6.64;63.27;94547.81;4206659;28;20051;-71
2024/01/01 09:06:30;;;;;;;121.20;86.28;;;;;;;6.59;62.78;94526.59;4197888;28;20147;-71
2024/01/01 09:08:31;;;;;;;122.68;84.60;;;;;;;6.56;63.20;94538.09;4198150;28;20148;-70
2024/01/01 09:10:33;;;;;;;122.00;85.93;;;;;;;6.64;62.99;94519.19;4207310;28;20064;-71
2024/01/01 09:12:35;;;;;;;119.28;84.43;;;;;;;6.74;63.37;94518.19;4205661;28;20562;-70
2024/01/01 09:14:38;;;;;;;122.45;85.65;;;;;;;6.90;63.37;94509.78;4207142;28;20055;-69
2024/01/01 09:16:40;;;;;;;123.93;84.72;;;;;;;7.09;62.90;94505.50;4197300;28;20062;-71
2024/01/01 09:18:41;;;;;;;122.63;85.55;;;;;;;6.75;63.01;94516.41;4206559;28;20052;-71
2024/01/01 09:20:43;;;;;;;117.35;83.18;;;;;;;6.35;63.76;94525.25;4203071;28;20143;-69
2024/01/01 09:22:47;;;;;;;119.95;82.97;;;;;;;6.41;64.10;94521.25;4208333;28;20052;-71
2024/01/01 09:24:49;;;;;;;119.28;82.28;;;;;;;6.50;64.68;94516.06;4196080;28;20209;-72